< Typhoon 195103 1951 Season Typhoon 195105 >
Typhoon 195104 (IRIS)
General InformationTrack Information on Google Maps || Disaster Info.ResourceGoogle EarthGE AnimationAtom FeedGeoJSON
Detalied Best Track (Time Zone = UTC)
Year Month Day Hour Lat. Long. Pressure (hPa) Wind (kt) Class Image Chart
1951 4 28 12 6.3 144.9 1008 0 2 -- Chart
1951 4 28 18 6.3 144.5 1006 0 2 -- Chart
1951 4 29 00 6.5 144.0 1003 0 2 -- Chart
1951 4 29 06 6.6 143.5 1003 0 2 -- Chart
1951 4 29 12 7.0 142.9 1002 0 2 -- Chart
1951 4 29 18 7.6 142.4 1002 0 9 -- Chart
1951 4 30 00 8.1 141.7 1000 0 9 -- Chart
1951 4 30 06 8.1 140.7 998 0 9 -- Chart
1951 4 30 12 8.1 139.7 996 0 9 -- Chart
1951 4 30 18 8.5 138.7 994 0 9 -- Chart
1951 5 1 00 8.9 137.8 992 0 9 -- Chart
1951 5 1 06 9.0 136.8 987 0 9 -- Chart
1951 5 1 12 9.2 135.8 987 0 9 -- Chart
1951 5 1 18 9.6 135.1 987 0 9 -- Chart
1951 5 2 00 10.2 134.4 986 0 9 -- Chart
1951 5 2 06 10.5 134.1 984 0 9 -- Chart
1951 5 2 12 10.8 133.6 982 0 9 -- Chart
1951 5 2 18 11.0 132.9 970 0 9 -- Chart
1951 5 3 00 11.0 132.2 926 0 9 -- Chart
1951 5 3 06 10.9 131.9 912 0 9 -- Chart
1951 5 3 12 10.8 131.2 909 0 9 -- Chart
1951 5 3 18 11.4 130.4 909 0 9 -- Chart
1951 5 4 00 12.2 129.3 910 0 9 -- Chart
1951 5 4 06 11.9 127.8 909 0 9 -- Chart
1951 5 4 12 11.5 126.8 912 0 9 -- Chart
1951 5 4 18 11.5 125.6 919 0 9 -- Chart
1951 5 5 00 11.9 124.8 930 0 9 -- Chart
1951 5 5 06 12.5 124.0 941 0 9 -- Chart
1951 5 5 12 13.0 123.4 952 0 9 -- Chart
1951 5 5 18 13.6 122.7 964 0 9 -- Chart
1951 5 6 00 14.0 121.7 975 0 9 -- Chart
1951 5 6 06 14.3 120.6 984 0 9 -- Chart
1951 5 6 12 14.7 119.3 988 0 9 -- Chart
1951 5 6 18 15.3 118.4 988 0 9 -- Chart
1951 5 7 00 16.2 117.8 988 0 9 -- Chart
1951 5 7 06 17.2 118.0 986 0 9 -- Chart
1951 5 7 12 18.3 118.3 981 0 9 -- Chart
1951 5 7 18 19.1 118.7 978 0 9 -- Chart
1951 5 8 00 19.9 119.3 975 0 9 -- Chart
1951 5 8 06 21.0 120.3 974 0 9 -- Chart
1951 5 8 12 22.1 121.9 972 0 9 -- Chart
1951 5 8 18 23.2 123.6 970 0 9 -- Chart
1951 5 9 00 24.0 125.3 970 0 9 -- Chart
1951 5 9 06 25.0 128.1 976 0 9 -- Chart
1951 5 9 12 26.1 130.7 983 0 9 -- Chart
1951 5 9 18 26.7 133.3 990 0 9 -- Chart
1951 5 10 00 27.0 136.0 993 0 9 -- Chart
1951 5 10 06 27.7 139.9 995 0 9 -- Chart
1951 5 10 12 27.7 142.4 995 0 9 -- Chart
1951 5 10 18 27.5 144.5 995 0 9 -- Chart
1951 5 11 00 27.4 145.8 995 0 9 -- Chart
1951 5 11 06 28.2 143.7 995 0 9 -- Chart
1951 5 11 12 28.0 143.0 1000 0 6 -- Chart
1951 5 11 18 27.7 142.2 1000 0 6 -- Chart
1951 5 12 00 28.0 141.9 1000 0 6 -- Chart
1951 5 12 06 28.5 141.7 1004 0 6 -- Chart
1951 5 12 12 29.0 141.8 1000 0 6 -- Chart
1951 5 12 18 30.0 142.0 1000 0 6 -- Chart
1951 5 13 00 31.1 143.0 1000 0 6 -- Chart
1951 5 13 06 31.4 144.2 1002 0 6 -- Chart
1951 5 13 12 31.1 146.0 1004 0 6 -- Chart
1951 5 13 18 31.6 148.4 1006 0 6 -- Chart
1951 5 14 00 32.0 150.0 1010 0 6 -- Chart
1951 5 14 06 34.0 154.0 1010 0 6 -- Chart
1951 5 14 12 34.8 157.0 1012 0 6 -- Chart
1951 5 14 18 37.0 160.0 1012 0 6 -- Chart
Japan Meteorological Agency Best Track Data | Correction Date : 2013-03-19
< Typhoon 195103 1951 Season Typhoon 195105 >

Help